createdAt,value
2022-10-09T00:01:03.317Z,27.53
2022-10-09T00:03:30.982Z,27.00
2022-10-09T00:05:58.833Z,26.77
2022-10-09T00:08:26.443Z,27.07
2022-10-09T00:10:55.418Z,26.67
2022-10-09T00:13:23.545Z,27.60
2022-10-09T00:15:51.089Z,27.50
2022-10-09T00:18:19.733Z,27.40
2022-10-09T00:20:48.102Z,28.30
2022-10-09T00:23:17.397Z,28.27
2022-10-09T00:25:52.098Z,27.70
2022-10-09T00:28:21.101Z,28.17
2022-10-09T00:30:48.839Z,27.20
2022-10-09T00:33:16.468Z,26.80
2022-10-09T00:35:44.154Z,28.00
2022-10-09T00:38:11.858Z,26.93
2022-10-09T00:40:40.269Z,27.20
2022-10-09T00:43:13.306Z,27.17
2022-10-09T00:45:45.033Z,27.77
2022-10-09T00:48:13.527Z,27.17
2022-10-09T00:50:44.739Z,28.13
2022-10-09T00:53:16.737Z,27.67
2022-10-09T00:55:44.381Z,27.43
2022-10-09T00:58:13.765Z,26.40
2022-10-09T01:00:42.774Z,27.07
2022-10-09T01:03:10.318Z,28.00
2022-10-09T01:05:49.400Z,26.80
2022-10-09T01:08:21.441Z,27.30
2022-10-09T01:10:55.348Z,29.53
2022-10-09T01:13:29.127Z,28.37
2022-10-09T01:16:01.207Z,32.23
2022-10-09T01:18:38.136Z,29.73
2022-10-09T01:21:11.833Z,27.83
2022-10-09T01:23:54.060Z,29.20
2022-10-09T01:26:35.694Z,29.00
2022-10-09T01:29:08.893Z,30.67
2022-10-09T01:31:40.357Z,31.40
2022-10-09T01:34:09.351Z,32.10
2022-10-09T01:36:38.024Z,31.70
2022-10-09T01:39:08.595Z,31.13
2022-10-09T01:41:36.325Z,30.43
2022-10-09T01:44:15.445Z,29.67
2022-10-09T01:46:43.091Z,28.37
2022-10-09T01:49:18.550Z,27.10
2022-10-09T01:51:52.718Z,29.20
2022-10-09T01:54:30.170Z,29.20
2022-10-09T01:57:03.333Z,28.50
2022-10-09T01:59:37.272Z,26.83
2022-10-09T02:02:06.073Z,27.30
2022-10-09T02:04:34.905Z,27.57
2022-10-09T02:07:02.970Z,29.10
2022-10-09T02:09:31.462Z,28.37
2022-10-09T02:12:05.293Z,28.17
2022-10-09T02:14:34.796Z,28.57
2022-10-09T02:17:06.767Z,29.30
2022-10-09T02:19:39.971Z,30.10
2022-10-09T02:22:14.002Z,34.20
2022-10-09T02:24:43.201Z,28.60
2022-10-09T02:27:12.256Z,29.50
2022-10-09T02:29:42.589Z,29.30
2022-10-09T02:32:10.959Z,28.07
2022-10-09T02:34:38.665Z,28.90
2022-10-09T02:37:06.854Z,28.00
2022-10-09T02:39:34.618Z,28.90
2022-10-09T02:42:02.281Z,28.13
2022-10-09T02:44:30.151Z,28.40
2022-10-09T02:46:59.030Z,29.23
2022-10-09T02:49:26.583Z,27.93
2022-10-09T02:51:54.219Z,27.50
2022-10-09T02:54:21.767Z,27.73
2022-10-09T02:56:49.284Z,28.27
2022-10-09T02:59:17.021Z,27.50
2022-10-09T03:01:45.828Z,27.10
2022-10-09T03:04:14.793Z,28.13
2022-10-09T03:06:42.678Z,28.50
2022-10-09T03:09:10.194Z,28.50
2022-10-09T03:11:37.746Z,28.33
2022-10-09T03:14:05.253Z,28.37
2022-10-09T03:16:32.849Z,27.57
2022-10-09T03:19:00.438Z,28.80
2022-10-09T03:21:29.350Z,28.43
2022-10-09T03:23:57.362Z,29.00
2022-10-09T03:26:27.661Z,28.00
2022-10-09T03:28:56.629Z,28.60
2022-10-09T03:31:50.695Z,28.90
2022-10-09T03:34:14.487Z,29.33
2022-10-09T03:36:43.474Z,29.10
2022-10-09T03:39:11.351Z,28.37
2022-10-09T03:41:38.906Z,27.90
2022-10-09T03:44:06.625Z,27.40
2022-10-09T03:46:34.304Z,28.03
2022-10-09T03:49:01.894Z,28.60
2022-10-09T03:51:29.435Z,28.87
2022-10-09T03:53:58.349Z,28.53
2022-10-09T03:56:26.051Z,28.03
2022-10-09T03:58:53.585Z,32.43
2022-10-09T04:01:21.157Z,28.20
2022-10-09T04:03:48.938Z,28.60
2022-10-09T04:06:17.495Z,28.23
2022-10-09T04:08:45.027Z,27.90
2022-10-09T04:11:13.903Z,38.93
2022-10-09T04:13:41.450Z,74.93
2022-10-09T04:16:12.545Z,36.73
2022-10-09T04:18:40.565Z,30.37
2022-10-09T04:21:08.712Z,30.80
2022-10-09T04:23:36.253Z,45.27
2022-10-09T04:26:03.850Z,43.33
2022-10-09T04:28:33.494Z,28.50
2022-10-09T04:31:01.382Z,33.93
2022-10-09T04:33:29.502Z,29.13
2022-10-09T04:35:57.949Z,39.97
2022-10-09T04:38:25.754Z,69.00
2022-10-09T04:40:57.779Z,29.17
2022-10-09T04:43:25.783Z,31.73
2022-10-09T04:45:54.767Z,25.47
2022-10-09T04:48:22.693Z,25.47
2022-10-09T04:50:50.411Z,25.30
2022-10-09T04:53:17.974Z,25.73
2022-10-09T04:55:46.278Z,25.90
2022-10-09T04:58:14.936Z,25.87
2022-10-09T05:00:43.412Z,25.50
2022-10-09T05:03:12.901Z,25.13
2022-10-09T05:05:40.570Z,24.70
2022-10-09T05:08:08.129Z,25.50
2022-10-09T05:10:35.667Z,26.00
2022-10-09T05:13:03.206Z,25.67
2022-10-09T05:15:30.905Z,25.97
2022-10-09T05:17:58.645Z,25.63
2022-10-09T05:20:27.586Z,25.37
2022-10-09T05:22:55.125Z,24.90
2022-10-09T05:25:22.630Z,25.00
2022-10-09T05:27:50.217Z,24.80
2022-10-09T05:30:17.975Z,25.03
2022-10-09T05:32:45.508Z,25.97
2022-10-09T05:35:13.040Z,25.23
2022-10-09T05:37:45.122Z,58.40
2022-10-09T05:40:12.742Z,56.50
2022-10-09T05:42:40.286Z,57.10
2022-10-09T05:45:09.394Z,55.10
2022-10-09T05:47:36.905Z,54.90
2022-10-09T05:50:04.845Z,54.27
2022-10-09T05:52:32.365Z,51.20
2022-10-09T05:55:01.298Z,50.73
2022-10-09T05:57:29.190Z,49.53
2022-10-09T05:59:56.693Z,46.00
2022-10-09T06:02:24.325Z,45.43
2022-10-09T06:04:51.927Z,43.40
2022-10-09T06:07:19.433Z,42.77
2022-10-09T06:09:46.958Z,40.63
2022-10-09T06:12:15.826Z,38.97
2022-10-09T06:14:43.357Z,39.57
2022-10-09T06:17:10.893Z,37.00
2022-10-09T06:19:38.398Z,37.00
2022-10-09T06:22:05.930Z,35.60
2022-10-09T06:24:33.447Z,39.40
2022-10-09T06:27:01.070Z,36.67
2022-10-09T06:29:30.517Z,37.80
2022-10-09T06:31:58.199Z,35.27
2022-10-09T06:34:25.970Z,35.10
2022-10-09T06:36:53.504Z,33.13
2022-10-09T06:39:21.094Z,33.20
2022-10-09T06:41:48.627Z,33.43
2022-10-09T06:44:17.348Z,33.30
2022-10-09T06:46:49.807Z,35.20
2022-10-09T06:49:17.378Z,33.43
2022-10-09T06:51:45.031Z,35.00
2022-10-09T06:54:14.211Z,37.27
2022-10-09T06:56:42.077Z,36.63
2022-10-09T06:59:12.010Z,38.37
2022-10-09T07:01:39.705Z,39.50
2022-10-09T07:04:11.739Z,39.90
2022-10-09T07:06:42.002Z,40.53
2022-10-09T07:09:12.338Z,43.60
2022-10-09T07:11:42.973Z,44.20
2022-10-09T07:14:11.925Z,45.00
2022-10-09T07:16:42.391Z,45.53
2022-10-09T07:19:12.859Z,48.30
2022-10-09T07:21:42.198Z,47.30
2022-10-09T07:24:11.186Z,49.87
2022-10-09T07:26:41.405Z,50.90
2022-10-09T07:29:10.157Z,54.00
2022-10-09T07:31:37.713Z,56.27
2022-10-09T07:34:06.230Z,54.70
2022-10-09T07:36:35.667Z,55.50
2022-10-09T07:39:03.352Z,54.63
2022-10-09T07:41:30.987Z,54.10
2022-10-09T07:43:58.958Z,56.17
2022-10-09T07:46:33.023Z,54.53
2022-10-09T07:49:01.922Z,49.00
2022-10-09T07:51:30.671Z,52.70
2022-10-09T07:54:01.743Z,95.77
2022-10-09T07:56:31.083Z,58.23
2022-10-09T07:59:00.161Z,55.07
2022-10-09T08:01:29.283Z,68.57
2022-10-09T08:03:57.536Z,73.23
2022-10-09T08:06:25.211Z,54.47
2022-10-09T08:08:54.324Z,43.87
2022-10-09T08:11:24.695Z,39.67
2022-10-09T08:13:53.655Z,39.40
2022-10-09T08:16:22.772Z,36.67
2022-10-09T08:18:50.454Z,36.63
2022-10-09T08:21:19.742Z,36.63
2022-10-09T08:23:47.439Z,36.93
2022-10-09T08:26:16.221Z,37.07
2022-10-09T08:28:45.459Z,34.77
2022-10-09T08:31:14.444Z,35.40
2022-10-09T08:33:42.229Z,34.57
2022-10-09T08:36:14.349Z,34.27
2022-10-09T08:38:47.642Z,34.53
2022-10-09T08:41:24.289Z,35.23
2022-10-09T08:44:01.067Z,33.37
2022-10-09T08:46:34.409Z,32.10
2022-10-09T08:49:05.242Z,33.87
2022-10-09T08:51:39.146Z,34.30
2022-10-09T08:54:14.427Z,32.93
2022-10-09T08:56:42.023Z,33.60
2022-10-09T08:59:12.793Z,33.40
2022-10-09T09:01:48.595Z,33.73
2022-10-09T09:04:34.314Z,33.37
2022-10-09T09:07:11.563Z,34.10
2022-10-09T09:09:47.960Z,34.57
2022-10-09T09:12:21.621Z,33.43
2022-10-09T09:15:02.328Z,33.97
2022-10-09T09:17:38.374Z,33.43
2022-10-09T09:20:15.958Z,35.50
2022-10-09T09:22:47.373Z,34.30
2022-10-09T09:25:20.803Z,32.90
2022-10-09T09:27:48.981Z,31.90
2022-10-09T09:30:21.578Z,33.90
2022-10-09T09:32:57.538Z,33.60
2022-10-09T09:35:30.927Z,34.27
2022-10-09T09:37:58.461Z,34.30
2022-10-09T09:40:36.863Z,34.10
2022-10-09T09:43:16.477Z,34.20
2022-10-09T09:45:46.132Z,34.60
2022-10-09T09:48:17.342Z,35.07
2022-10-09T09:50:52.981Z,33.83
2022-10-09T09:53:36.724Z,33.17
2022-10-09T09:56:04.912Z,31.43
2022-10-09T09:58:37.034Z,33.97
2022-10-09T10:01:07.595Z,32.97
2022-10-09T10:03:36.724Z,31.33
2022-10-09T10:06:04.759Z,32.80
2022-10-09T10:08:34.702Z,33.03
2022-10-09T10:11:04.284Z,33.67
2022-10-09T10:13:35.758Z,31.63
2022-10-09T10:16:04.493Z,31.10
2022-10-09T10:18:40.148Z,32.20
2022-10-09T10:21:12.249Z,29.60
2022-10-09T10:23:42.852Z,32.00
2022-10-09T10:26:21.522Z,29.80
2022-10-09T10:28:55.098Z,30.00
2022-10-09T10:31:48.607Z,30.20
2022-10-09T10:34:23.384Z,29.07
2022-10-09T10:37:02.478Z,28.17
2022-10-09T10:39:37.821Z,28.63
2022-10-09T10:42:16.514Z,27.80
2022-10-09T10:44:51.609Z,28.03
2022-10-09T10:47:24.750Z,26.83
2022-10-09T10:49:54.034Z,25.40
2022-10-09T10:52:36.214Z,27.70
2022-10-09T10:55:16.909Z,26.77
2022-10-09T10:57:52.929Z,25.03
2022-10-09T11:00:20.663Z,25.00
2022-10-09T11:03:02.771Z,23.87
2022-10-09T11:05:42.689Z,22.17
2022-10-09T11:08:26.315Z,22.97
2022-10-09T11:11:03.225Z,22.30
2022-10-09T11:13:34.905Z,21.50
2022-10-09T11:16:15.240Z,22.03
2022-10-09T11:18:56.073Z,19.30
2022-10-09T11:21:36.503Z,18.60
2022-10-09T11:24:26.663Z,15.30
2022-10-09T11:27:03.640Z,15.30
2022-10-09T11:29:38.150Z,14.90
2022-10-09T11:32:13.620Z,12.83
2022-10-09T11:34:45.771Z,13.30
2022-10-09T11:37:21.362Z,12.00
2022-10-09T11:39:49.038Z,11.80
2022-10-09T11:42:25.134Z,11.40
2022-10-09T11:45:03.634Z,11.73
2022-10-09T11:47:40.790Z,10.37
2022-10-09T11:50:23.710Z,10.50
2022-10-09T11:52:59.136Z,10.27
2022-10-09T11:55:28.554Z,10.77
2022-10-09T11:57:56.168Z,9.93
2022-10-09T12:00:32.030Z,9.83
2022-10-09T12:03:03.166Z,10.10
2022-10-09T12:05:39.689Z,9.80
2022-10-09T12:08:15.354Z,9.00
2022-10-09T12:10:51.967Z,9.40
2022-10-09T12:13:32.783Z,8.90
2022-10-09T12:16:01.094Z,8.80
2022-10-09T12:18:31.149Z,9.07
2022-10-09T12:21:02.342Z,8.70
2022-10-09T12:23:35.318Z,8.17
2022-10-09T12:26:03.679Z,9.10
2022-10-09T12:28:36.577Z,8.17
2022-10-09T12:31:08.140Z,8.40
2022-10-09T12:33:39.046Z,8.43
2022-10-09T12:36:13.258Z,7.90
2022-10-09T12:38:42.698Z,8.20
2022-10-09T12:41:20.133Z,8.43
2022-10-09T12:43:49.726Z,8.17
2022-10-09T12:46:27.499Z,8.07
2022-10-09T12:48:55.471Z,8.10
2022-10-09T12:51:26.135Z,8.47
2022-10-09T12:53:55.880Z,7.27
2022-10-09T12:56:26.398Z,6.90
2022-10-09T12:58:54.473Z,7.37
2022-10-09T13:01:22.824Z,6.97
2022-10-09T13:03:56.132Z,7.93
2022-10-09T13:06:26.109Z,7.47
2022-10-09T13:08:57.640Z,6.80
2022-10-09T13:11:31.418Z,6.83
2022-10-09T13:13:59.330Z,6.83
2022-10-09T13:16:27.097Z,7.23
2022-10-09T13:18:57.852Z,6.43
2022-10-09T13:21:31.511Z,7.27
2022-10-09T13:24:10.378Z,6.57
2022-10-09T13:26:39.666Z,7.63
2022-10-09T13:29:08.434Z,9.30
2022-10-09T13:31:36.952Z,7.13
2022-10-09T13:34:12.469Z,7.10
2022-10-09T13:36:40.100Z,7.27
2022-10-09T13:39:14.428Z,6.80
2022-10-09T13:41:43.822Z,7.80
2022-10-09T13:44:11.489Z,6.70
2022-10-09T13:46:39.030Z,7.73
2022-10-09T13:49:06.631Z,7.37
2022-10-09T13:51:34.628Z,7.53
2022-10-09T13:54:02.162Z,7.20
2022-10-09T13:56:31.044Z,6.63
2022-10-09T13:58:58.690Z,6.40
2022-10-09T14:01:26.320Z,7.30
2022-10-09T14:03:53.874Z,8.00
2022-10-09T14:06:22.348Z,6.37
2022-10-09T14:08:50.658Z,6.57
2022-10-09T14:11:18.245Z,6.70
2022-10-09T14:13:47.120Z,6.63
2022-10-09T14:16:15.666Z,7.63
2022-10-09T14:18:43.250Z,7.20
2022-10-09T14:21:15.004Z,6.20
2022-10-09T14:23:43.756Z,7.47
2022-10-09T14:26:11.530Z,8.07
2022-10-09T14:28:39.225Z,7.90
2022-10-09T14:31:08.781Z,8.00
2022-10-09T14:33:36.646Z,7.67
2022-10-09T14:36:08.757Z,7.40
2022-10-09T14:38:39.851Z,7.83
2022-10-09T14:41:07.787Z,8.30
2022-10-09T14:43:35.803Z,7.43
2022-10-09T14:46:06.417Z,7.83
2022-10-09T14:48:36.089Z,7.90
2022-10-09T14:51:04.741Z,7.67
2022-10-09T14:53:32.793Z,7.50
2022-10-09T14:56:03.444Z,7.93
2022-10-09T14:58:31.658Z,7.47
2022-10-09T15:00:59.898Z,7.90
2022-10-09T15:03:29.054Z,6.60
2022-10-09T15:05:59.536Z,7.47
2022-10-09T15:08:27.597Z,7.23
2022-10-09T15:10:55.606Z,7.50
2022-10-09T15:13:23.121Z,6.33
2022-10-09T15:15:50.653Z,6.43
2022-10-09T15:18:18.614Z,6.50
2022-10-09T15:20:47.069Z,5.47
2022-10-09T15:23:16.022Z,5.33
2022-10-09T15:25:49.189Z,5.27
2022-10-09T15:28:17.380Z,5.77
2022-10-09T15:30:45.992Z,6.03
2022-10-09T15:33:13.701Z,5.90
2022-10-09T15:35:41.647Z,6.10
2022-10-09T15:38:15.026Z,7.13
2022-10-09T15:40:46.140Z,6.20
2022-10-09T15:43:14.842Z,7.50
2022-10-09T15:45:42.889Z,8.93
2022-10-09T15:48:16.461Z,9.67
2022-10-09T15:50:46.335Z,18.60
2022-10-09T15:53:15.065Z,16.00
2022-10-09T15:55:45.958Z,17.40
2022-10-09T15:58:13.957Z,16.10
2022-10-09T16:00:43.893Z,13.90
2022-10-09T16:03:11.705Z,12.33
2022-10-09T16:05:40.346Z,11.13
2022-10-09T16:08:08.786Z,11.93
2022-10-09T16:10:46.338Z,8.90
2022-10-09T16:13:17.703Z,8.50
2022-10-09T16:15:47.333Z,8.30
2022-10-09T16:18:16.708Z,7.20
2022-10-09T16:20:44.697Z,6.80
2022-10-09T16:23:12.880Z,9.07
2022-10-09T16:25:41.481Z,9.50
2022-10-09T16:28:11.697Z,6.70
2022-10-09T16:30:42.210Z,7.20
2022-10-09T16:33:12.624Z,7.10
2022-10-09T16:35:40.791Z,7.80
2022-10-09T16:38:08.946Z,6.80
2022-10-09T16:43:24.048Z,5.23
2022-10-09T16:45:52.910Z,5.63
2022-10-09T16:48:20.462Z,5.40
2022-10-09T16:50:48.383Z,5.50
2022-10-09T16:53:15.901Z,5.50
2022-10-09T16:55:43.433Z,6.20
2022-10-09T16:58:10.972Z,6.90
2022-10-09T17:00:38.540Z,5.37
2022-10-09T17:03:07.461Z,5.80
2022-10-09T17:05:39.175Z,5.20
2022-10-09T17:08:06.739Z,5.40
2022-10-09T17:10:34.304Z,5.40
2022-10-09T17:13:01.825Z,5.30
2022-10-09T17:15:29.354Z,5.30
2022-10-09T17:17:56.888Z,5.33
2022-10-09T17:20:25.778Z,5.20
2022-10-09T17:22:53.293Z,5.40
2022-10-09T17:25:20.831Z,5.50
2022-10-09T17:27:48.375Z,5.50
2022-10-09T17:30:16.121Z,5.60
2022-10-09T17:32:43.701Z,5.30
2022-10-09T17:35:11.611Z,5.60
2022-10-09T17:37:40.498Z,5.80
2022-10-09T17:40:08.733Z,5.40
2022-10-09T17:42:36.283Z,5.70
2022-10-09T17:45:04.003Z,5.50
2022-10-09T17:47:31.571Z,6.33
2022-10-09T17:49:59.099Z,6.37
2022-10-09T17:52:26.701Z,6.10
2022-10-09T17:54:55.688Z,6.50
2022-10-09T17:57:23.259Z,6.20
2022-10-09T17:59:50.774Z,6.90
2022-10-09T18:02:18.321Z,7.00
2022-10-09T18:04:45.868Z,7.20
2022-10-09T18:07:13.830Z,7.90
2022-10-09T18:09:41.357Z,7.70
2022-10-09T18:12:10.238Z,11.60
2022-10-09T18:14:37.754Z,13.50
2022-10-09T18:17:05.274Z,12.30
2022-10-09T18:19:32.865Z,11.63
2022-10-09T18:22:00.393Z,12.23
2022-10-09T18:24:28.031Z,11.60
2022-10-09T18:26:55.586Z,11.10
2022-10-09T18:29:24.518Z,11.70
2022-10-09T18:31:55.556Z,11.03
2022-10-09T18:34:23.221Z,12.10
2022-10-09T18:36:52.178Z,11.43
2022-10-09T18:39:21.433Z,11.03
2022-10-09T18:41:48.982Z,11.53
2022-10-09T18:44:19.962Z,12.30
2022-10-09T18:46:52.561Z,14.27
2022-10-09T18:49:23.573Z,13.80
2022-10-09T18:51:52.158Z,15.87
2022-10-09T18:54:22.862Z,15.57
2022-10-09T18:56:50.538Z,15.77
2022-10-09T18:59:21.678Z,34.47
2022-10-09T19:01:50.776Z,18.17
2022-10-09T19:04:18.956Z,15.60
2022-10-09T19:06:46.633Z,20.97
2022-10-09T19:09:14.724Z,16.83
2022-10-09T19:11:42.302Z,17.77
2022-10-09T19:14:09.842Z,17.77
2022-10-09T19:16:37.380Z,17.97
2022-10-09T19:19:07.111Z,17.53
2022-10-09T19:21:36.272Z,19.30
2022-10-09T19:24:06.131Z,20.40
2022-10-09T19:26:35.200Z,20.70
2022-10-09T19:29:02.829Z,20.00
2022-10-09T19:31:31.891Z,20.13
2022-10-09T19:34:00.802Z,21.73
2022-10-09T19:36:33.048Z,21.80
2022-10-09T19:39:00.677Z,21.30
2022-10-09T19:41:28.401Z,22.70
2022-10-09T19:43:56.052Z,23.90
2022-10-09T19:46:23.872Z,24.40
2022-10-09T19:48:51.819Z,24.07
2022-10-09T19:51:21.505Z,24.00
2022-10-09T19:53:52.064Z,25.80
2022-10-09T19:56:21.766Z,24.60
2022-10-09T19:58:50.598Z,25.57
2022-10-09T20:01:19.789Z,24.87
2022-10-09T20:03:48.538Z,24.53
2022-10-09T20:06:16.579Z,25.63
2022-10-09T20:08:45.116Z,25.50
2022-10-09T20:11:14.101Z,25.47
2022-10-09T20:13:43.039Z,27.00
2022-10-09T20:16:12.947Z,25.77
2022-10-09T20:18:42.144Z,26.50
2022-10-09T20:21:10.559Z,27.73
2022-10-09T20:23:38.100Z,26.83
2022-10-09T20:26:08.406Z,26.63
2022-10-09T20:28:38.390Z,26.77
2022-10-09T20:31:08.110Z,27.70
2022-10-09T20:33:36.600Z,28.70
2022-10-09T20:36:05.414Z,28.23
2022-10-09T20:38:32.997Z,28.10
2022-10-09T20:41:04.551Z,28.40
2022-10-09T20:43:32.078Z,28.83
2022-10-09T20:46:00.943Z,28.07
2022-10-09T20:48:28.477Z,27.90
2022-10-09T20:50:55.995Z,29.10
2022-10-09T20:53:23.521Z,29.07
2022-10-09T20:55:51.030Z,29.47
2022-10-09T20:58:18.698Z,29.13
2022-10-09T21:00:46.278Z,30.20
2022-10-09T21:03:15.158Z,29.20
2022-10-09T21:05:43.682Z,29.20
2022-10-09T21:08:11.437Z,30.00
2022-10-09T21:10:43.695Z,30.00
2022-10-09T21:13:11.233Z,30.33
2022-10-09T21:15:43.639Z,29.87
2022-10-09T21:18:11.750Z,30.27
2022-10-09T21:20:41.958Z,29.80
2022-10-09T21:23:10.432Z,30.00
2022-10-09T21:25:38.698Z,29.83
2022-10-09T21:28:06.774Z,29.83
2022-10-09T21:30:41.611Z,30.37
2022-10-09T21:33:09.606Z,32.17
2022-10-09T21:35:41.339Z,31.57
2022-10-09T21:38:12.875Z,123.47
2022-10-09T21:40:40.510Z,32.17
2022-10-09T21:43:10.442Z,31.53
2022-10-09T21:45:38.721Z,33.07
2022-10-09T21:48:07.009Z,29.80
2022-10-09T21:50:36.238Z,30.10
2022-10-09T21:53:05.515Z,32.20
2022-10-09T21:55:33.203Z,32.30
2022-10-09T21:58:00.768Z,32.53
2022-10-09T22:00:28.307Z,33.90
2022-10-09T22:02:55.867Z,39.77
2022-10-09T22:05:23.408Z,31.97
2022-10-09T22:07:51.014Z,31.10
2022-10-09T22:10:20.547Z,36.50
2022-10-09T22:12:48.239Z,47.70
2022-10-09T22:15:16.050Z,38.70
2022-10-09T22:17:43.578Z,36.00
2022-10-09T22:20:11.140Z,46.77
2022-10-09T22:22:38.671Z,35.80
2022-10-09T22:25:07.309Z,34.40
2022-10-09T22:27:36.298Z,35.43
2022-10-09T22:30:04.217Z,76.83
2022-10-09T22:32:31.750Z,31.83
2022-10-09T22:34:59.311Z,142.37
2022-10-09T22:37:26.922Z,31.50
2022-10-09T22:39:54.426Z,32.13
2022-10-09T22:42:21.991Z,43.53
2022-10-09T22:44:50.861Z,31.60
2022-10-09T22:47:18.390Z,30.67
2022-10-09T22:49:46.168Z,30.90
2022-10-09T22:52:13.682Z,31.80
2022-10-09T22:54:41.225Z,33.13
2022-10-09T22:57:08.858Z,30.10
2022-10-09T22:59:36.441Z,30.27
2022-10-09T23:02:05.478Z,80.60
2022-10-09T23:04:33.174Z,31.43
2022-10-09T23:07:01.919Z,31.27
2022-10-09T23:09:32.233Z,31.63
2022-10-09T23:12:00.931Z,30.70
2022-10-09T23:14:28.851Z,31.90
2022-10-09T23:16:56.454Z,32.80
2022-10-09T23:19:25.338Z,32.13
2022-10-09T23:21:52.865Z,31.37
2022-10-09T23:24:20.389Z,32.53
2022-10-09T23:26:51.780Z,31.83
2022-10-09T23:29:20.679Z,31.30
2022-10-09T23:31:49.385Z,32.20
2022-10-09T23:34:17.007Z,32.90
2022-10-09T23:36:45.886Z,32.33
2022-10-09T23:39:14.222Z,32.17
2022-10-09T23:41:41.827Z,30.97
2022-10-09T23:44:09.414Z,31.13
2022-10-09T23:46:37.672Z,31.63
2022-10-09T23:49:06.469Z,31.17
2022-10-09T23:51:34.128Z,30.80
2022-10-09T23:54:03.025Z,30.20
2022-10-09T23:56:33.144Z,33.10
2022-10-09T23:59:02.244Z,30.60
